createdAt,value
2019-03-31T00:01:11.735Z,100441.31
2019-03-31T00:03:39.390Z,100440.16
2019-03-31T00:06:07.091Z,100437.41
2019-03-31T00:08:34.992Z,100439.45
2019-03-31T00:11:02.660Z,100432.05
2019-03-31T00:13:30.315Z,100432.26
2019-03-31T00:15:57.968Z,100437.88
2019-03-31T00:18:25.649Z,100429.27
2019-03-31T00:20:53.293Z,100424.95
2019-03-31T00:23:20.942Z,100423.24
2019-03-31T00:25:51.504Z,100419.05
2019-03-31T00:28:19.303Z,100429.42
2019-03-31T00:30:46.980Z,100434.57
2019-03-31T00:33:14.645Z,100427.37
2019-03-31T00:35:42.295Z,100433.60
2019-03-31T00:38:09.951Z,100431.63
2019-03-31T00:40:37.626Z,100430.06
2019-03-31T00:43:05.280Z,100433.95
2019-03-31T00:45:32.935Z,100426.02
2019-03-31T00:48:00.622Z,100428.58
2019-03-31T00:50:28.315Z,100429.91
2019-03-31T00:52:55.987Z,100431.80
2019-03-31T00:55:23.675Z,100435.39
2019-03-31T00:57:51.340Z,100434.38
2019-03-31T01:00:38.047Z,100428.50
2019-03-31T01:03:05.875Z,100429.68
2019-03-31T01:05:33.817Z,100426.36
2019-03-31T01:08:01.461Z,100422.91
2019-03-31T01:10:29.120Z,100435.84
2019-03-31T01:12:56.802Z,100433.41
2019-03-31T01:15:25.276Z,100427.70
2019-03-31T01:17:52.957Z,100431.27
2019-03-31T01:20:20.619Z,100431.29
2019-03-31T01:22:48.266Z,100432.73
2019-03-31T01:25:16.614Z,100428.34
2019-03-31T01:27:44.440Z,100433.12
2019-03-31T01:30:13.230Z,100438.62
2019-03-31T01:32:41.424Z,100429.54
2019-03-31T01:35:10.292Z,100430.46
2019-03-31T01:37:37.983Z,100438.28
2019-03-31T01:40:05.720Z,100430.37
2019-03-31T01:42:33.371Z,100434.66
2019-03-31T01:45:01.033Z,100435.99
2019-03-31T01:47:28.713Z,100433.23
2019-03-31T01:49:56.380Z,100432.80
2019-03-31T01:52:24.034Z,100435.07
2019-03-31T01:54:51.713Z,100438.39
2019-03-31T01:57:19.487Z,100443.67
2019-03-31T01:59:47.171Z,100431.45
2019-03-31T02:02:20.572Z,100428.70
2019-03-31T02:04:48.257Z,100434.03
2019-03-31T02:07:15.907Z,100437.66
2019-03-31T02:09:43.568Z,100428.61
2019-03-31T02:12:11.271Z,100438.13
2019-03-31T02:14:39.007Z,100433.20
2019-03-31T02:17:06.678Z,100439.32
2019-03-31T02:19:34.335Z,100434.52
2019-03-31T02:22:01.987Z,100435.91
2019-03-31T02:24:29.636Z,100434.31
2019-03-31T02:26:57.296Z,100434.88
2019-03-31T02:29:24.943Z,100438.39
2019-03-31T02:31:52.722Z,100436.91
2019-03-31T02:34:20.443Z,100437.68
2019-03-31T02:36:48.117Z,100432.52
2019-03-31T02:39:15.867Z,100439.30
2019-03-31T02:41:43.541Z,100445.75
2019-03-31T02:44:11.187Z,100434.66
2019-03-31T02:46:38.851Z,100440.44
2019-03-31T02:49:06.528Z,100442.12
2019-03-31T02:51:34.194Z,100435.25
2019-03-31T02:54:01.851Z,100442.99
2019-03-31T02:56:29.508Z,100439.59
2019-03-31T02:58:57.163Z,100433.29
2019-03-31T03:01:24.824Z,100436.77
2019-03-31T03:03:52.471Z,100441.22
2019-03-31T03:06:20.189Z,100436.70
2019-03-31T03:08:47.849Z,100440.88
2019-03-31T03:11:15.568Z,100430.84
2019-03-31T03:13:43.225Z,100432.76
2019-03-31T03:16:10.877Z,100434.40
2019-03-31T03:18:38.532Z,100443.64
2019-03-31T03:21:06.189Z,100440.19
2019-03-31T03:23:33.834Z,100438.53
2019-03-31T03:26:01.493Z,100442.08
2019-03-31T03:28:29.142Z,100447.67
2019-03-31T03:30:56.916Z,100453.09
2019-03-31T03:33:24.944Z,100449.21
2019-03-31T03:35:52.608Z,100444.24
2019-03-31T03:38:20.283Z,100448.67
2019-03-31T03:40:48.077Z,100448.41
2019-03-31T03:43:15.780Z,100449.73
2019-03-31T03:45:43.440Z,100445.84
2019-03-31T03:48:11.145Z,100448.50
2019-03-31T03:50:38.858Z,100458.83
2019-03-31T03:53:06.541Z,100452.33
2019-03-31T03:55:34.225Z,100453.69
2019-03-31T03:58:01.872Z,100455.98
2019-03-31T04:00:29.536Z,100465.11
2019-03-31T04:02:57.185Z,100461.48
2019-03-31T04:05:24.849Z,100456.78
2019-03-31T04:07:52.511Z,100463.97
2019-03-31T04:10:20.333Z,100468.08
2019-03-31T04:12:47.988Z,100469.11
2019-03-31T04:15:15.644Z,100466.28
2019-03-31T04:17:43.307Z,100469.47
2019-03-31T04:20:10.959Z,100463.03
2019-03-31T04:22:38.619Z,100469.05
2019-03-31T04:25:06.301Z,100466.94
2019-03-31T04:27:33.969Z,100471.25
2019-03-31T04:30:01.769Z,100473.61
2019-03-31T04:32:29.490Z,100476.89
2019-03-31T04:34:57.258Z,100478.54
2019-03-31T04:37:25.028Z,100481.16
2019-03-31T04:39:52.684Z,100482.80
2019-03-31T04:42:20.349Z,100480.63
2019-03-31T04:44:48.019Z,100480.30
2019-03-31T04:47:15.696Z,100481.30
2019-03-31T04:49:43.368Z,100491.31
2019-03-31T04:52:11.106Z,100490.52
2019-03-31T04:54:38.763Z,100496.05
2019-03-31T04:57:06.607Z,100489.88
2019-03-31T04:59:34.267Z,100490.69
2019-03-31T05:02:01.926Z,100492.44
2019-03-31T05:04:29.593Z,100494.94
2019-03-31T05:06:57.262Z,100501.17
2019-03-31T05:09:24.918Z,100505.75
2019-03-31T05:11:52.961Z,100513.91
2019-03-31T05:14:20.596Z,100514.95
2019-03-31T05:16:48.255Z,100518.34
2019-03-31T05:19:15.915Z,100523.28
2019-03-31T05:21:43.583Z,100517.20
2019-03-31T05:24:11.262Z,100520.41
2019-03-31T05:26:38.929Z,100519.77
2019-03-31T05:29:06.594Z,100536.39
2019-03-31T05:31:34.275Z,100534.67
2019-03-31T05:34:01.933Z,100536.10
2019-03-31T05:36:29.587Z,100535.96
2019-03-31T05:38:57.253Z,100537.77
2019-03-31T05:41:25.048Z,100536.63
2019-03-31T05:44:05.094Z,100537.21
2019-03-31T05:46:22.164Z,100538.55
2019-03-31T05:48:49.819Z,100542.95
2019-03-31T05:51:17.493Z,100552.93
2019-03-31T05:53:45.143Z,100549.31
2019-03-31T05:56:12.815Z,100552.16
2019-03-31T05:58:40.479Z,100553.77
2019-03-31T06:01:08.131Z,100566.09
2019-03-31T06:03:35.784Z,100566.02
2019-03-31T06:06:03.449Z,100560.69
2019-03-31T06:08:31.149Z,100571.21
2019-03-31T06:10:58.795Z,100564.94
2019-03-31T06:13:26.452Z,100569.52
2019-03-31T06:15:54.123Z,100578.12
2019-03-31T06:18:21.782Z,100581.66
2019-03-31T06:20:49.438Z,100575.43
2019-03-31T06:23:17.092Z,100576.88
2019-03-31T06:25:44.744Z,100575.43
2019-03-31T06:28:12.405Z,100573.34
2019-03-31T06:30:40.064Z,100578.58
2019-03-31T06:33:07.735Z,100580.07
2019-03-31T06:35:35.388Z,100585.73
2019-03-31T06:38:03.050Z,100585.34
2019-03-31T06:40:30.719Z,100585.92
2019-03-31T06:42:58.395Z,100588.91
2019-03-31T06:45:26.036Z,100585.23
2019-03-31T06:47:53.689Z,100588.41
2019-03-31T06:50:21.365Z,100586.78
2019-03-31T06:52:49.022Z,100595.78
2019-03-31T06:55:16.675Z,100592.72
2019-03-31T06:57:44.335Z,100600.83
2019-03-31T07:00:12.056Z,100605.63
2019-03-31T07:02:39.721Z,100608.08
2019-03-31T07:05:07.455Z,100605.61
2019-03-31T07:07:35.141Z,100608.19
2019-03-31T07:10:02.812Z,100607.81
2019-03-31T07:12:30.489Z,100608.97
2019-03-31T07:14:58.153Z,100608.20
2019-03-31T07:17:25.815Z,100613.84
2019-03-31T07:19:53.474Z,100612.53
2019-03-31T07:22:24.233Z,100621.54
2019-03-31T07:24:50.520Z,100626.48
2019-03-31T07:27:18.165Z,100636.22
2019-03-31T07:29:45.828Z,100631.09
2019-03-31T07:32:13.492Z,100640.42
2019-03-31T07:34:41.153Z,100647.17
2019-03-31T07:37:08.816Z,100653.11
2019-03-31T07:39:36.731Z,100649.27
2019-03-31T07:42:04.615Z,100651.62
2019-03-31T07:44:32.579Z,100649.70
2019-03-31T07:47:00.255Z,100652.55
2019-03-31T07:49:27.950Z,100652.88
2019-03-31T07:51:55.635Z,100657.80
2019-03-31T07:54:23.291Z,100657.55
2019-03-31T07:56:50.953Z,100654.17
2019-03-31T07:59:19.528Z,100653.52
2019-03-31T08:01:47.183Z,100654.21
2019-03-31T08:04:14.845Z,100660.15
2019-03-31T08:06:42.503Z,100654.21
2019-03-31T08:09:10.171Z,100661.97
2019-03-31T08:11:38.035Z,100656.34
2019-03-31T08:14:05.820Z,100661.77
2019-03-31T08:16:33.491Z,100664.48
2019-03-31T08:19:01.203Z,100658.59
2019-03-31T08:21:28.868Z,100666.91
2019-03-31T08:23:56.542Z,100663.79
2019-03-31T08:26:24.221Z,100671.95
2019-03-31T08:28:51.884Z,100670.89
2019-03-31T08:31:19.563Z,100674.97
2019-03-31T08:33:47.380Z,100669.41
2019-03-31T08:36:15.086Z,100671.52
2019-03-31T08:38:42.825Z,100664.20
2019-03-31T08:41:10.481Z,100678.44
2019-03-31T08:43:38.234Z,100680.22
2019-03-31T08:46:06.033Z,100679.66
2019-03-31T08:48:33.687Z,100679.30
2019-03-31T08:55:53.227Z,100692.84
2019-03-31T09:00:52.116Z,100691.83
2019-03-31T09:05:45.773Z,100690.00
2019-03-31T09:08:13.889Z,100689.95
2019-03-31T09:10:41.546Z,100694.85
2019-03-31T09:13:09.216Z,100697.81
2019-03-31T09:15:37.057Z,100698.00
2019-03-31T09:18:04.804Z,100709.45
2019-03-31T09:20:32.471Z,100710.15
2019-03-31T09:23:00.139Z,100704.61
2019-03-31T09:25:27.937Z,100708.73
2019-03-31T09:27:55.611Z,100704.07
2019-03-31T09:30:23.276Z,100706.78
2019-03-31T09:35:17.057Z,100713.00
2019-03-31T09:37:44.718Z,100711.58
2019-03-31T09:40:12.415Z,100710.92
2019-03-31T09:45:06.127Z,100719.69
2019-03-31T09:47:33.803Z,100720.18
2019-03-31T09:50:01.508Z,100719.41
2019-03-31T09:52:29.167Z,100734.44
2019-03-31T09:54:56.844Z,100728.42
2019-03-31T09:57:24.504Z,100734.39
2019-03-31T09:59:52.176Z,100740.36
2019-03-31T10:02:19.839Z,100739.89
2019-03-31T10:04:47.511Z,100732.73
2019-03-31T10:07:15.175Z,100731.56
2019-03-31T10:09:42.845Z,100729.84
2019-03-31T10:12:10.502Z,100734.63
2019-03-31T10:14:38.196Z,100741.36
2019-03-31T10:17:05.847Z,100734.98
2019-03-31T10:19:33.580Z,100735.96
2019-03-31T10:22:01.244Z,100737.99
2019-03-31T10:24:28.911Z,100742.84
2019-03-31T10:26:56.576Z,100743.23
2019-03-31T10:29:24.268Z,100739.78
2019-03-31T10:31:52.167Z,100739.22
2019-03-31T10:34:19.791Z,100736.74
2019-03-31T10:36:47.448Z,100743.22
2019-03-31T10:39:15.137Z,100745.13
2019-03-31T10:41:42.908Z,100745.37
2019-03-31T10:44:10.570Z,100739.02
2019-03-31T10:46:38.247Z,100741.42
2019-03-31T10:49:05.922Z,100737.05
2019-03-31T10:51:34.158Z,100738.64
2019-03-31T10:54:04.564Z,100735.49
2019-03-31T10:56:31.345Z,100739.28
2019-03-31T10:58:59.053Z,100740.70
2019-03-31T11:03:52.643Z,100749.33
2019-03-31T11:06:20.310Z,100748.11
2019-03-31T11:08:47.979Z,100749.34
2019-03-31T11:11:15.639Z,100756.55
2019-03-31T11:13:43.423Z,100751.97
2019-03-31T11:16:11.096Z,100748.88
2019-03-31T11:18:38.755Z,100752.72
2019-03-31T11:21:13.070Z,100757.41
2019-03-31T11:23:40.736Z,100757.13
2019-03-31T11:26:08.600Z,100754.55
2019-03-31T11:28:36.261Z,100740.45
2019-03-31T11:31:03.923Z,100749.61
2019-03-31T11:33:31.584Z,100745.64
2019-03-31T11:35:59.254Z,100756.16
2019-03-31T11:38:26.923Z,100758.25
2019-03-31T11:40:54.583Z,100761.68
2019-03-31T11:43:22.336Z,100757.72
2019-03-31T11:45:50.170Z,100761.75
2019-03-31T11:48:17.844Z,100757.45
2019-03-31T11:50:45.513Z,100769.22
2019-03-31T11:53:13.186Z,100766.77
2019-03-31T11:55:40.852Z,100765.95
2019-03-31T11:58:08.525Z,100768.34
2019-03-31T12:00:40.788Z,100767.38
2019-03-31T12:03:08.452Z,100771.55
2019-03-31T12:05:36.403Z,100767.41
2019-03-31T12:08:04.136Z,100769.67
2019-03-31T12:10:31.802Z,100769.30
2019-03-31T12:12:59.462Z,100763.98
2019-03-31T12:15:27.154Z,100761.98
2019-03-31T12:17:54.832Z,100766.77
2019-03-31T12:20:22.508Z,100759.81
2019-03-31T12:22:50.159Z,100765.99
2019-03-31T12:25:19.804Z,100768.59
2019-03-31T12:27:47.240Z,100762.03
2019-03-31T12:30:14.928Z,100763.86
2019-03-31T12:32:42.590Z,100762.55
2019-03-31T12:35:10.260Z,100760.98
2019-03-31T12:37:42.643Z,100765.42
2019-03-31T12:40:07.330Z,100752.48
2019-03-31T12:42:34.997Z,100760.39
2019-03-31T12:45:02.700Z,100762.09
2019-03-31T12:47:31.091Z,100758.16
2019-03-31T12:49:58.754Z,100759.98
2019-03-31T12:52:26.415Z,100757.66
2019-03-31T12:54:54.166Z,100763.45
2019-03-31T12:57:22.228Z,100764.05
2019-03-31T12:59:49.959Z,100766.56
2019-03-31T13:02:17.617Z,100764.81
2019-03-31T13:04:45.279Z,100759.84
2019-03-31T13:07:14.919Z,100763.69
2019-03-31T13:09:42.492Z,100758.05
2019-03-31T13:12:10.227Z,100757.09
2019-03-31T13:14:37.889Z,100755.91
2019-03-31T13:17:05.696Z,100763.92
2019-03-31T13:19:33.418Z,100756.45
2019-03-31T13:22:01.121Z,100762.37
2019-03-31T13:24:28.803Z,100761.97
2019-03-31T13:26:56.463Z,100762.94
2019-03-31T13:29:24.137Z,100762.34
2019-03-31T13:31:51.795Z,100758.75
2019-03-31T13:34:19.458Z,100756.41
2019-03-31T13:36:47.121Z,100756.02
2019-03-31T13:39:14.776Z,100751.50
2019-03-31T13:41:42.439Z,100755.62
2019-03-31T13:44:10.104Z,100754.59
2019-03-31T13:46:37.755Z,100751.14
2019-03-31T13:49:05.423Z,100754.64
2019-03-31T13:51:33.362Z,100750.56
2019-03-31T13:54:01.046Z,100751.04
2019-03-31T13:56:29.553Z,100747.23
2019-03-31T13:58:57.824Z,100754.02
2019-03-31T14:01:25.492Z,100751.71
2019-03-31T14:03:53.234Z,100756.47
2019-03-31T14:06:21.495Z,100756.70
2019-03-31T14:08:49.155Z,100762.98
2019-03-31T14:11:16.812Z,100754.88
2019-03-31T14:13:44.479Z,100757.05
2019-03-31T14:16:12.157Z,100755.48
2019-03-31T14:18:39.827Z,100756.30
2019-03-31T14:21:07.493Z,100759.99
2019-03-31T14:23:35.167Z,100756.97
2019-03-31T14:26:02.844Z,100754.96
2019-03-31T14:28:30.543Z,100753.16
2019-03-31T14:30:58.201Z,100758.37
2019-03-31T14:33:25.851Z,100753.89
2019-03-31T14:35:53.567Z,100755.10
2019-03-31T14:38:21.309Z,100747.17
2019-03-31T14:40:49.150Z,100755.36
2019-03-31T14:43:16.864Z,100761.53
2019-03-31T14:45:44.535Z,100766.48
2019-03-31T14:48:12.198Z,100762.06
2019-03-31T14:50:40.000Z,100757.73
2019-03-31T14:53:07.676Z,100763.66
2019-03-31T14:55:35.346Z,100757.53
2019-03-31T14:58:03.010Z,100761.63
2019-03-31T15:00:30.679Z,100758.91
2019-03-31T15:02:58.347Z,100753.64
2019-03-31T15:05:26.135Z,100758.83
2019-03-31T15:07:53.894Z,100767.90
2019-03-31T15:10:21.563Z,100766.03
2019-03-31T15:12:49.235Z,100762.72
2019-03-31T15:15:16.981Z,100768.34
2019-03-31T15:17:44.647Z,100781.19
2019-03-31T15:20:12.398Z,100770.61
2019-03-31T15:22:40.064Z,100772.28
2019-03-31T15:25:07.746Z,100759.77
2019-03-31T15:27:35.419Z,100764.91
2019-03-31T15:30:03.076Z,100761.63
2019-03-31T15:32:30.739Z,100769.19
2019-03-31T15:34:58.399Z,100763.08
2019-03-31T15:37:26.149Z,100764.77
2019-03-31T15:39:53.807Z,100763.28
2019-03-31T15:42:21.832Z,100768.30
2019-03-31T15:44:49.519Z,100770.64
2019-03-31T15:47:17.188Z,100764.73
2019-03-31T15:49:44.852Z,100771.52
2019-03-31T15:52:12.539Z,100769.37
2019-03-31T15:54:40.205Z,100772.97
2019-03-31T15:57:07.865Z,100774.14
2019-03-31T15:59:35.980Z,100780.11
2019-03-31T16:02:03.664Z,100771.98
2019-03-31T16:04:31.335Z,100770.53
2019-03-31T16:06:59.002Z,100771.92
2019-03-31T16:09:26.665Z,100776.53
2019-03-31T16:11:54.397Z,100775.40
2019-03-31T16:14:22.093Z,100776.00
2019-03-31T16:16:49.759Z,100777.31
2019-03-31T16:19:17.430Z,100783.73
2019-03-31T16:21:45.103Z,100785.50
2019-03-31T16:24:12.778Z,100777.73
2019-03-31T16:26:40.459Z,100785.73
2019-03-31T16:29:08.124Z,100788.53
2019-03-31T16:31:35.807Z,100786.22
2019-03-31T16:34:03.476Z,100797.73
2019-03-31T16:36:31.147Z,100793.79
2019-03-31T16:38:58.835Z,100796.65
2019-03-31T16:41:26.488Z,100788.38
2019-03-31T16:43:54.150Z,100790.38
2019-03-31T16:46:21.811Z,100793.27
2019-03-31T16:48:49.538Z,100788.72
2019-03-31T16:51:17.196Z,100790.97
2019-03-31T16:53:44.851Z,100795.63
2019-03-31T16:56:12.512Z,100794.78
2019-03-31T16:58:40.209Z,100795.83
2019-03-31T17:01:07.856Z,100798.59
2019-03-31T17:03:35.607Z,100802.17
2019-03-31T17:06:03.268Z,100795.94
2019-03-31T17:10:56.884Z,100798.24
2019-03-31T17:15:50.474Z,100801.58
2019-03-31T17:18:18.144Z,100796.53
2019-03-31T17:20:45.800Z,100806.49
2019-03-31T17:23:13.455Z,100809.27
2019-03-31T17:25:41.130Z,100805.12
2019-03-31T17:28:10.334Z,100811.97
2019-03-31T17:33:04.148Z,100821.02
2019-03-31T17:35:31.800Z,100818.06
2019-03-31T17:37:59.476Z,100821.59
2019-03-31T17:40:27.120Z,100827.50
2019-03-31T17:42:54.767Z,100836.88
2019-03-31T17:45:22.446Z,100840.05
2019-03-31T17:47:50.099Z,100845.34
2019-03-31T17:50:17.768Z,100838.02
2019-03-31T17:52:45.431Z,100841.68
2019-03-31T17:55:13.079Z,100842.16
2019-03-31T17:57:42.433Z,100848.51
2019-03-31T18:02:36.035Z,100850.39
2019-03-31T18:07:29.615Z,100865.13
2019-03-31T18:09:57.300Z,100861.50
2019-03-31T18:12:24.991Z,100868.81
2019-03-31T18:14:52.637Z,100865.96
2019-03-31T18:17:20.423Z,100869.86
2019-03-31T18:19:48.079Z,100867.47
2019-03-31T18:22:16.961Z,100872.63
2019-03-31T18:24:44.940Z,100872.78
2019-03-31T18:27:12.618Z,100875.53
2019-03-31T18:29:40.268Z,100887.44
2019-03-31T18:32:07.919Z,100882.92
2019-03-31T18:34:35.602Z,100880.82
2019-03-31T18:37:03.280Z,100879.88
2019-03-31T18:39:30.941Z,100888.44
2019-03-31T18:41:58.576Z,100887.47
2019-03-31T18:44:26.223Z,100898.22
2019-03-31T18:46:53.875Z,100900.66
2019-03-31T18:49:21.527Z,100900.73
2019-03-31T18:51:49.181Z,100903.64
2019-03-31T18:54:25.290Z,100905.22
2019-03-31T18:56:59.355Z,100910.09
2019-03-31T18:59:37.305Z,100916.41
2019-03-31T19:02:18.896Z,100914.91
2019-03-31T19:04:56.520Z,100922.58
2019-03-31T19:07:35.944Z,100910.39
2019-03-31T19:10:24.677Z,100910.80
2019-03-31T19:12:49.835Z,100916.92
2019-03-31T19:15:22.782Z,100915.60
2019-03-31T19:18:09.502Z,100913.34
2019-03-31T19:20:47.102Z,100915.37
2019-03-31T19:23:31.049Z,100914.76
2019-03-31T19:26:04.016Z,100915.25
2019-03-31T19:28:41.971Z,100919.56
2019-03-31T19:31:17.481Z,100921.52
2019-03-31T19:33:50.408Z,100926.09
2019-03-31T19:36:28.369Z,100918.05
2019-03-31T19:39:08.999Z,100922.88
2019-03-31T19:41:41.991Z,100923.73
2019-03-31T19:44:17.803Z,100925.67
2019-03-31T19:46:53.136Z,100922.56
2019-03-31T19:49:29.294Z,100919.78
2019-03-31T19:52:06.781Z,100923.11
2019-03-31T19:54:45.951Z,100925.93
2019-03-31T19:57:35.676Z,100932.37
2019-03-31T20:00:14.317Z,100927.12
2019-03-31T20:02:52.885Z,100930.86
2019-03-31T20:05:25.816Z,100928.23
2019-03-31T20:08:08.899Z,100923.55
2019-03-31T20:10:43.715Z,100934.38
2019-03-31T20:13:22.809Z,100930.97
2019-03-31T20:16:08.207Z,100940.07
2019-03-31T20:18:42.925Z,100934.02
2019-03-31T20:21:32.115Z,100944.98
2019-03-31T20:24:04.344Z,100940.78
2019-03-31T20:26:43.071Z,100943.78
2019-03-31T20:29:17.284Z,100938.64
2019-03-31T20:31:58.660Z,100933.70
2019-03-31T20:34:34.107Z,100935.23
2019-03-31T20:37:19.283Z,100935.23
2019-03-31T20:40:05.536Z,100936.75
2019-03-31T20:42:53.256Z,100942.39
2019-03-31T21:02:23.128Z,100945.83
2019-03-31T21:04:50.808Z,100952.98
2019-03-31T21:07:18.494Z,100950.41
2019-03-31T21:09:46.154Z,100958.63
2019-03-31T21:12:13.920Z,100960.63
2019-03-31T21:14:41.576Z,100965.14
2019-03-31T21:17:09.225Z,100970.51
2019-03-31T21:19:36.938Z,100969.48
2019-03-31T21:22:04.588Z,100970.83
2019-03-31T21:24:32.255Z,100971.00
2019-03-31T21:26:59.903Z,100978.97
2019-03-31T21:29:27.556Z,100973.38
2019-03-31T21:31:55.199Z,100973.16
2019-03-31T21:34:22.850Z,100979.15
2019-03-31T21:36:50.495Z,100978.98
2019-03-31T21:39:18.152Z,100987.50
2019-03-31T21:41:45.807Z,100980.59
2019-03-31T21:44:13.462Z,100984.78
2019-03-31T21:46:41.110Z,100981.28
2019-03-31T21:49:08.783Z,100983.11
2019-03-31T21:51:36.445Z,100987.13
2019-03-31T21:54:04.108Z,100984.78
2019-03-31T21:56:31.750Z,100997.08
2019-03-31T21:58:59.398Z,100994.95
2019-03-31T22:01:27.036Z,101003.45
2019-03-31T22:03:54.691Z,100996.06
2019-03-31T22:06:22.327Z,101008.23
2019-03-31T22:08:49.984Z,101006.22
2019-03-31T22:11:17.655Z,101005.63
2019-03-31T22:13:45.315Z,101010.25
2019-03-31T22:16:13.030Z,101007.94
2019-03-31T22:18:41.300Z,101010.88
2019-03-31T22:21:09.247Z,101013.23
2019-03-31T22:23:36.949Z,101011.41
2019-03-31T22:26:04.604Z,101014.77
2019-03-31T22:28:32.362Z,101013.47
2019-03-31T22:31:00.095Z,101015.02
2019-03-31T22:33:27.745Z,101020.13
2019-03-31T22:36:00.746Z,101018.67
2019-03-31T22:38:28.393Z,101019.25
2019-03-31T22:40:56.191Z,101016.59
2019-03-31T22:43:23.828Z,101011.67
2019-03-31T22:45:51.475Z,101019.86
2019-03-31T22:48:19.254Z,101014.62
2019-03-31T22:50:46.891Z,101019.95
2019-03-31T22:53:14.552Z,101022.63
2019-03-31T22:55:42.196Z,101019.55
2019-03-31T22:58:10.019Z,101021.93
2019-03-31T23:00:37.762Z,101017.98
2019-03-31T23:03:05.548Z,101015.98
2019-03-31T23:05:33.247Z,101012.73
2019-03-31T23:08:00.883Z,101020.55
2019-03-31T23:10:28.535Z,101026.04
2019-03-31T23:12:56.191Z,101025.97
2019-03-31T23:15:23.844Z,101029.72
2019-03-31T23:17:51.512Z,101033.30
2019-03-31T23:20:19.171Z,101038.09
2019-03-31T23:22:46.851Z,101034.92
2019-03-31T23:25:14.901Z,101037.03
2019-03-31T23:27:42.614Z,101037.34
2019-03-31T23:30:11.154Z,101038.75
2019-03-31T23:32:38.815Z,101040.17
2019-03-31T23:35:06.608Z,101039.16
2019-03-31T23:37:34.463Z,101043.23
2019-03-31T23:40:02.303Z,101038.15
2019-03-31T23:42:29.955Z,101035.67
2019-03-31T23:44:57.606Z,101029.58
2019-03-31T23:47:25.247Z,101037.87
2019-03-31T23:49:52.892Z,101032.96
2019-03-31T23:52:20.547Z,101031.16
2019-03-31T23:54:48.191Z,101033.65
2019-03-31T23:57:15.959Z,101042.02
2019-03-31T23:59:43.899Z,101041.02
